sensor_id;sensor_type;location;lat;lon;timestamp;P1;durP1;ratioP1;P2;durP2;ratioP2
56321;SDS011;42227;6.376;-10.782;2023-02-28T00:01:29;92.10;;;47.05;;
56321;SDS011;42227;6.376;-10.782;2023-02-28T00:03:58;89.32;;;42.20;;
56321;SDS011;42227;6.376;-10.782;2023-02-28T00:06:27;137.75;;;63.45;;
56321;SDS011;42227;6.376;-10.782;2023-02-28T00:08:55;148.05;;;78.40;;
56321;SDS011;42227;6.376;-10.782;2023-02-28T00:11:24;86.78;;;42.53;;
56321;SDS011;42227;6.376;-10.782;2023-02-28T00:13:52;59.10;;;28.27;;
56321;SDS011;42227;6.376;-10.782;2023-02-28T00:16:21;109.13;;;60.65;;
56321;SDS011;42227;6.376;-10.782;2023-02-28T00:18:50;112.28;;;56.97;;
56321;SDS011;42227;6.376;-10.782;2023-02-28T00:21:18;65.90;;;30.30;;
56321;SDS011;42227;6.376;-10.782;2023-02-28T00:23:48;58.28;;;25.15;;
56321;SDS011;42227;6.376;-10.782;2023-02-28T00:26:16;70.18;;;37.40;;
56321;SDS011;42227;6.376;-10.782;2023-02-28T00:28:48;113.57;;;56.85;;
56321;SDS011;42227;6.376;-10.782;2023-02-28T00:31:16;126.30;;;62.97;;
56321;SDS011;42227;6.376;-10.782;2023-02-28T00:33:47;100.88;;;48.25;;
56321;SDS011;42227;6.376;-10.782;2023-02-28T00:36:15;67.45;;;30.55;;
56321;SDS011;42227;6.376;-10.782;2023-02-28T00:38:43;50.47;;;20.88;;
56321;SDS011;42227;6.376;-10.782;2023-02-28T00:41:12;34.55;;;16.63;;
56321;SDS011;42227;6.376;-10.782;2023-02-28T00:43:40;45.20;;;18.45;;
56321;SDS011;42227;6.376;-10.782;2023-02-28T00:46:10;37.83;;;15.90;;
56321;SDS011;42227;6.376;-10.782;2023-02-28T00:48:38;48.58;;;16.85;;
56321;SDS011;42227;6.376;-10.782;2023-02-28T00:51:07;31.75;;;15.93;;
56321;SDS011;42227;6.376;-10.782;2023-02-28T00:53:36;34.25;;;15.32;;
56321;SDS011;42227;6.376;-10.782;2023-02-28T00:56:04;44.88;;;15.32;;
56321;SDS011;42227;6.376;-10.782;2023-02-28T00:58:33;30.98;;;14.77;;
56321;SDS011;42227;6.376;-10.782;2023-02-28T01:01:01;37.08;;;15.18;;
56321;SDS011;42227;6.376;-10.782;2023-02-28T01:03:30;50.25;;;20.08;;
56321;SDS011;42227;6.376;-10.782;2023-02-28T01:05:58;50.95;;;17.48;;
56321;SDS011;42227;6.376;-10.782;2023-02-28T01:08:27;46.55;;;19.48;;
56321;SDS011;42227;6.376;-10.782;2023-02-28T01:10:55;47.05;;;19.13;;
56321;SDS011;42227;6.376;-10.782;2023-02-28T01:13:24;46.70;;;21.02;;
56321;SDS011;42227;6.376;-10.782;2023-02-28T01:15:53;47.53;;;20.63;;
56321;SDS011;42227;6.376;-10.782;2023-02-28T01:18:23;40.55;;;18.17;;
56321;SDS011;42227;6.376;-10.782;2023-02-28T01:20:52;59.50;;;20.65;;
56321;SDS011;42227;6.376;-10.782;2023-02-28T01:23:21;39.08;;;19.75;;
56321;SDS011;42227;6.376;-10.782;2023-02-28T01:25:50;54.45;;;21.05;;
56321;SDS011;42227;6.376;-10.782;2023-02-28T01:28:19;45.95;;;18.63;;
56321;SDS011;42227;6.376;-10.782;2023-02-28T01:30:49;54.42;;;18.50;;
56321;SDS011;42227;6.376;-10.782;2023-02-28T01:33:18;47.58;;;19.63;;
56321;SDS011;42227;6.376;-10.782;2023-02-28T01:35:46;60.92;;;21.65;;
56321;SDS011;42227;6.376;-10.782;2023-02-28T01:38:15;32.38;;;16.42;;
56321;SDS011;42227;6.376;-10.782;2023-02-28T01:40:49;40.28;;;16.65;;
56321;SDS011;42227;6.376;-10.782;2023-02-28T01:43:22;42.92;;;17.45;;
56321;SDS011;42227;6.376;-10.782;2023-02-28T01:45:55;48.83;;;18.10;;
56321;SDS011;42227;6.376;-10.782;2023-02-28T01:48:26;62.40;;;30.33;;
56321;SDS011;42227;6.376;-10.782;2023-02-28T01:50:58;60.47;;;30.02;;
56321;SDS011;42227;6.376;-10.782;2023-02-28T01:53:32;68.13;;;32.95;;
56321;SDS011;42227;6.376;-10.782;2023-02-28T01:56:05;58.85;;;31.65;;
56321;SDS011;42227;6.376;-10.782;2023-02-28T01:58:36;71.10;;;35.60;;
56321;SDS011;42227;6.376;-10.782;2023-02-28T02:01:04;60.88;;;30.73;;
56321;SDS011;42227;6.376;-10.782;2023-02-28T02:03:32;65.80;;;34.85;;
56321;SDS011;42227;6.376;-10.782;2023-02-28T02:06:03;89.78;;;39.92;;
56321;SDS011;42227;6.376;-10.782;2023-02-28T02:08:31;67.20;;;40.47;;
56321;SDS011;42227;6.376;-10.782;2023-02-28T02:11:01;74.78;;;39.13;;
56321;SDS011;42227;6.376;-10.782;2023-02-28T02:16:23;90.75;;;43.53;;
56321;SDS011;42227;6.376;-10.782;2023-02-28T02:21:47;106.05;;;56.47;;
56321;SDS011;42227;6.376;-10.782;2023-02-28T02:34:49;69.20;;;39.70;;
56321;SDS011;42227;6.376;-10.782;2023-02-28T02:37:31;88.93;;;37.40;;
56321;SDS011;42227;6.376;-10.782;2023-02-28T02:40:10;75.30;;;36.90;;
56321;SDS011;42227;6.376;-10.782;2023-02-28T02:42:50;60.13;;;35.08;;
56321;SDS011;42227;6.376;-10.782;2023-02-28T02:48:14;73.60;;;39.60;;
56321;SDS011;42227;6.376;-10.782;2023-02-28T02:50:49;79.32;;;39.42;;
56321;SDS011;42227;6.376;-10.782;2023-02-28T02:53:23;72.40;;;39.13;;
56321;SDS011;42227;6.376;-10.782;2023-02-28T02:55:59;80.93;;;36.28;;
56321;SDS011;42227;6.376;-10.782;2023-02-28T02:58:33;67.38;;;33.67;;
56321;SDS011;42227;6.376;-10.782;2023-02-28T03:01:05;57.97;;;32.40;;
56321;SDS011;42227;6.376;-10.782;2023-02-28T03:03:34;53.25;;;32.08;;
56321;SDS011;42227;6.376;-10.782;2023-02-28T03:06:03;49.15;;;31.70;;
56321;SDS011;42227;6.376;-10.782;2023-02-28T03:08:36;61.88;;;31.85;;
56321;SDS011;42227;6.376;-10.782;2023-02-28T03:11:06;69.28;;;32.70;;
56321;SDS011;42227;6.376;-10.782;2023-02-28T03:25:20;62.00;;;31.63;;
56321;SDS011;42227;6.376;-10.782;2023-02-28T03:33:35;57.40;;;28.75;;
56321;SDS011;42227;6.376;-10.782;2023-02-28T03:36:15;67.03;;;29.55;;
56321;SDS011;42227;6.376;-10.782;2023-02-28T03:38:51;57.25;;;30.48;;
56321;SDS011;42227;6.376;-10.782;2023-02-28T03:41:22;52.50;;;31.30;;
56321;SDS011;42227;6.376;-10.782;2023-02-28T03:44:05;64.85;;;38.22;;
56321;SDS011;42227;6.376;-10.782;2023-02-28T03:46:46;57.00;;;31.77;;
56321;SDS011;42227;6.376;-10.782;2023-02-28T03:49:22;80.85;;;39.25;;
56321;SDS011;42227;6.376;-10.782;2023-02-28T03:51:54;68.93;;;35.58;;
56321;SDS011;42227;6.376;-10.782;2023-02-28T03:54:27;62.97;;;31.67;;
56321;SDS011;42227;6.376;-10.782;2023-02-28T03:57:05;52.08;;;28.13;;
56321;SDS011;42227;6.376;-10.782;2023-02-28T03:59:56;48.80;;;26.30;;
56321;SDS011;42227;6.376;-10.782;2023-02-28T04:02:37;55.45;;;27.42;;
56321;SDS011;42227;6.376;-10.782;2023-02-28T04:05:07;46.67;;;24.27;;
56321;SDS011;42227;6.376;-10.782;2023-02-28T04:07:37;41.17;;;24.77;;
56321;SDS011;42227;6.376;-10.782;2023-02-28T04:10:05;48.22;;;25.83;;
56321;SDS011;42227;6.376;-10.782;2023-02-28T04:12:34;42.80;;;23.75;;
56321;SDS011;42227;6.376;-10.782;2023-02-28T04:15:03;46.08;;;25.17;;
56321;SDS011;42227;6.376;-10.782;2023-02-28T04:17:31;54.10;;;24.17;;
56321;SDS011;42227;6.376;-10.782;2023-02-28T04:20:00;43.83;;;22.67;;
56321;SDS011;42227;6.376;-10.782;2023-02-28T04:22:28;32.17;;;21.67;;
56321;SDS011;42227;6.376;-10.782;2023-02-28T04:24:56;35.58;;;22.90;;
56321;SDS011;42227;6.376;-10.782;2023-02-28T04:27:24;41.75;;;21.77;;
56321;SDS011;42227;6.376;-10.782;2023-02-28T04:29:53;30.50;;;19.08;;
56321;SDS011;42227;6.376;-10.782;2023-02-28T04:32:21;31.17;;;21.92;;
56321;SDS011;42227;6.376;-10.782;2023-02-28T04:34:49;32.20;;;19.40;;
56321;SDS011;42227;6.376;-10.782;2023-02-28T04:37:17;29.60;;;18.15;;
56321;SDS011;42227;6.376;-10.782;2023-02-28T04:39:46;30.00;;;19.30;;
56321;SDS011;42227;6.376;-10.782;2023-02-28T04:42:14;43.97;;;28.50;;
56321;SDS011;42227;6.376;-10.782;2023-02-28T04:44:43;52.70;;;30.77;;
56321;SDS011;42227;6.376;-10.782;2023-02-28T04:47:11;39.08;;;26.08;;
56321;SDS011;42227;6.376;-10.782;2023-02-28T04:49:39;46.20;;;21.95;;
56321;SDS011;42227;6.376;-10.782;2023-02-28T04:52:08;35.08;;;20.25;;
56321;SDS011;42227;6.376;-10.782;2023-02-28T04:54:36;33.47;;;18.83;;
56321;SDS011;42227;6.376;-10.782;2023-02-28T04:57:05;42.55;;;27.10;;
56321;SDS011;42227;6.376;-10.782;2023-02-28T04:59:33;52.35;;;29.27;;
56321;SDS011;42227;6.376;-10.782;2023-02-28T05:02:01;38.35;;;27.85;;
56321;SDS011;42227;6.376;-10.782;2023-02-28T05:04:29;55.03;;;31.67;;
56321;SDS011;42227;6.376;-10.782;2023-02-28T05:06:58;51.45;;;36.08;;
56321;SDS011;42227;6.376;-10.782;2023-02-28T05:09:26;55.28;;;39.20;;
56321;SDS011;42227;6.376;-10.782;2023-02-28T05:11:54;45.80;;;32.03;;
56321;SDS011;42227;6.376;-10.782;2023-02-28T05:14:23;48.83;;;35.20;;
56321;SDS011;42227;6.376;-10.782;2023-02-28T05:16:51;58.65;;;38.50;;
56321;SDS011;42227;6.376;-10.782;2023-02-28T05:19:19;51.80;;;36.75;;
56321;SDS011;42227;6.376;-10.782;2023-02-28T05:21:49;50.00;;;36.60;;
56321;SDS011;42227;6.376;-10.782;2023-02-28T05:24:20;56.60;;;40.00;;
56321;SDS011;42227;6.376;-10.782;2023-02-28T05:26:49;47.38;;;33.83;;
56321;SDS011;42227;6.376;-10.782;2023-02-28T05:29:19;45.55;;;29.73;;
56321;SDS011;42227;6.376;-10.782;2023-02-28T05:31:47;42.25;;;25.48;;
56321;SDS011;42227;6.376;-10.782;2023-02-28T05:34:16;39.97;;;24.42;;
56321;SDS011;42227;6.376;-10.782;2023-02-28T05:36:44;38.33;;;22.85;;
56321;SDS011;42227;6.376;-10.782;2023-02-28T05:39:12;35.15;;;21.77;;
56321;SDS011;42227;6.376;-10.782;2023-02-28T05:41:41;35.42;;;20.33;;
56321;SDS011;42227;6.376;-10.782;2023-02-28T05:44:10;40.92;;;22.00;;
56321;SDS011;42227;6.376;-10.782;2023-02-28T05:46:38;39.75;;;21.73;;
56321;SDS011;42227;6.376;-10.782;2023-02-28T05:49:07;45.70;;;22.35;;
56321;SDS011;42227;6.376;-10.782;2023-02-28T05:51:35;43.05;;;22.33;;
56321;SDS011;42227;6.376;-10.782;2023-02-28T05:54:03;38.65;;;22.15;;
56321;SDS011;42227;6.376;-10.782;2023-02-28T05:56:32;45.75;;;23.10;;
56321;SDS011;42227;6.376;-10.782;2023-02-28T05:59:00;45.28;;;21.63;;
56321;SDS011;42227;6.376;-10.782;2023-02-28T06:04:03;34.80;;;21.88;;
56321;SDS011;42227;6.376;-10.782;2023-02-28T06:06:32;51.08;;;23.00;;
56321;SDS011;42227;6.376;-10.782;2023-02-28T06:09:06;37.35;;;21.23;;
56321;SDS011;42227;6.376;-10.782;2023-02-28T06:11:34;48.45;;;24.65;;
56321;SDS011;42227;6.376;-10.782;2023-02-28T06:14:02;34.92;;;23.20;;
56321;SDS011;42227;6.376;-10.782;2023-02-28T06:16:32;50.75;;;25.73;;
56321;SDS011;42227;6.376;-10.782;2023-02-28T06:19:03;45.35;;;23.33;;
56321;SDS011;42227;6.376;-10.782;2023-02-28T06:21:32;42.60;;;22.33;;
56321;SDS011;42227;6.376;-10.782;2023-02-28T06:24:00;31.05;;;20.27;;
56321;SDS011;42227;6.376;-10.782;2023-02-28T06:26:29;53.50;;;25.60;;
56321;SDS011;42227;6.376;-10.782;2023-02-28T06:28:57;57.38;;;28.88;;
56321;SDS011;42227;6.376;-10.782;2023-02-28T06:31:26;53.63;;;36.55;;
56321;SDS011;42227;6.376;-10.782;2023-02-28T06:33:55;75.07;;;39.55;;
56321;SDS011;42227;6.376;-10.782;2023-02-28T06:36:23;64.85;;;39.13;;
56321;SDS011;42227;6.376;-10.782;2023-02-28T06:38:51;42.40;;;23.25;;
56321;SDS011;42227;6.376;-10.782;2023-02-28T06:41:21;42.10;;;20.52;;
56321;SDS011;42227;6.376;-10.782;2023-02-28T06:43:53;41.90;;;19.75;;
56321;SDS011;42227;6.376;-10.782;2023-02-28T06:46:22;44.42;;;19.48;;
56321;SDS011;42227;6.376;-10.782;2023-02-28T06:48:51;50.63;;;21.88;;
56321;SDS011;42227;6.376;-10.782;2023-02-28T06:51:19;49.70;;;20.70;;
56321;SDS011;42227;6.376;-10.782;2023-02-28T06:53:48;51.75;;;22.98;;
56321;SDS011;42227;6.376;-10.782;2023-02-28T06:56:17;56.17;;;24.60;;
56321;SDS011;42227;6.376;-10.782;2023-02-28T06:58:46;37.92;;;23.63;;
56321;SDS011;42227;6.376;-10.782;2023-02-28T07:01:15;49.92;;;24.52;;
56321;SDS011;42227;6.376;-10.782;2023-02-28T07:03:44;52.97;;;24.13;;
56321;SDS011;42227;6.376;-10.782;2023-02-28T07:06:13;48.08;;;28.00;;
56321;SDS011;42227;6.376;-10.782;2023-02-28T07:08:41;57.97;;;30.60;;
56321;SDS011;42227;6.376;-10.782;2023-02-28T07:11:10;55.45;;;28.02;;
56321;SDS011;42227;6.376;-10.782;2023-02-28T07:13:38;52.78;;;27.15;;
56321;SDS011;42227;6.376;-10.782;2023-02-28T07:16:07;48.58;;;24.20;;
56321;SDS011;42227;6.376;-10.782;2023-02-28T07:18:38;45.83;;;20.30;;
56321;SDS011;42227;6.376;-10.782;2023-02-28T07:21:08;44.10;;;22.38;;
56321;SDS011;42227;6.376;-10.782;2023-02-28T07:23:38;54.63;;;22.80;;
56321;SDS011;42227;6.376;-10.782;2023-02-28T07:26:07;45.53;;;21.70;;
56321;SDS011;42227;6.376;-10.782;2023-02-28T07:28:40;58.60;;;19.85;;
56321;SDS011;42227;6.376;-10.782;2023-02-28T07:31:09;42.88;;;21.00;;
56321;SDS011;42227;6.376;-10.782;2023-02-28T07:33:38;54.85;;;21.52;;
56321;SDS011;42227;6.376;-10.782;2023-02-28T07:36:12;52.70;;;23.75;;
56321;SDS011;42227;6.376;-10.782;2023-02-28T07:38:43;53.90;;;23.95;;
56321;SDS011;42227;6.376;-10.782;2023-02-28T07:41:18;54.40;;;23.80;;
56321;SDS011;42227;6.376;-10.782;2023-02-28T07:43:48;51.42;;;20.10;;
56321;SDS011;42227;6.376;-10.782;2023-02-28T07:46:17;47.17;;;19.27;;
56321;SDS011;42227;6.376;-10.782;2023-02-28T07:48:46;49.30;;;20.13;;
56321;SDS011;42227;6.376;-10.782;2023-02-28T07:51:14;46.55;;;19.20;;
56321;SDS011;42227;6.376;-10.782;2023-02-28T07:53:42;36.33;;;14.60;;
56321;SDS011;42227;6.376;-10.782;2023-02-28T07:56:10;39.55;;;13.82;;
56321;SDS011;42227;6.376;-10.782;2023-02-28T07:58:39;32.28;;;13.95;;
56321;SDS011;42227;6.376;-10.782;2023-02-28T08:01:08;30.98;;;14.77;;
56321;SDS011;42227;6.376;-10.782;2023-02-28T08:03:37;36.90;;;14.15;;
56321;SDS011;42227;6.376;-10.782;2023-02-28T08:06:08;33.47;;;14.50;;
56321;SDS011;42227;6.376;-10.782;2023-02-28T08:08:44;30.65;;;15.27;;
56321;SDS011;42227;6.376;-10.782;2023-02-28T08:11:13;38.60;;;15.02;;
56321;SDS011;42227;6.376;-10.782;2023-02-28T08:13:42;40.22;;;15.68;;
56321;SDS011;42227;6.376;-10.782;2023-02-28T08:16:11;30.90;;;14.57;;
56321;SDS011;42227;6.376;-10.782;2023-02-28T08:18:41;38.90;;;15.90;;
56321;SDS011;42227;6.376;-10.782;2023-02-28T08:21:09;37.38;;;17.75;;
56321;SDS011;42227;6.376;-10.782;2023-02-28T08:23:38;27.63;;;15.30;;
56321;SDS011;42227;6.376;-10.782;2023-02-28T08:26:07;26.88;;;14.27;;
56321;SDS011;42227;6.376;-10.782;2023-02-28T08:28:35;38.45;;;17.38;;
56321;SDS011;42227;6.376;-10.782;2023-02-28T08:31:06;37.20;;;16.48;;
56321;SDS011;42227;6.376;-10.782;2023-02-28T08:33:37;24.67;;;12.95;;
56321;SDS011;42227;6.376;-10.782;2023-02-28T08:36:06;47.33;;;19.02;;
56321;SDS011;42227;6.376;-10.782;2023-02-28T08:38:36;30.40;;;12.65;;
56321;SDS011;42227;6.376;-10.782;2023-02-28T08:41:05;29.27;;;13.63;;
56321;SDS011;42227;6.376;-10.782;2023-02-28T08:43:35;47.80;;;22.85;;
56321;SDS011;42227;6.376;-10.782;2023-02-28T08:46:04;30.02;;;15.00;;
56321;SDS011;42227;6.376;-10.782;2023-02-28T08:48:34;45.33;;;22.83;;
56321;SDS011;42227;6.376;-10.782;2023-02-28T08:51:04;31.92;;;14.68;;
56321;SDS011;42227;6.376;-10.782;2023-02-28T08:53:35;44.70;;;16.90;;
56321;SDS011;42227;6.376;-10.782;2023-02-28T08:56:05;33.88;;;14.15;;
56321;SDS011;42227;6.376;-10.782;2023-02-28T08:58:36;32.38;;;13.70;;
56321;SDS011;42227;6.376;-10.782;2023-02-28T09:01:08;24.20;;;13.48;;
56321;SDS011;42227;6.376;-10.782;2023-02-28T09:03:38;20.15;;;12.00;;
56321;SDS011;42227;6.376;-10.782;2023-02-28T09:06:07;26.42;;;12.55;;
56321;SDS011;42227;6.376;-10.782;2023-02-28T09:08:36;34.03;;;14.95;;
56321;SDS011;42227;6.376;-10.782;2023-02-28T09:11:05;33.97;;;12.93;;
56321;SDS011;42227;6.376;-10.782;2023-02-28T09:13:33;22.60;;;11.15;;
56321;SDS011;42227;6.376;-10.782;2023-02-28T09:16:03;38.15;;;13.27;;
56321;SDS011;42227;6.376;-10.782;2023-02-28T09:18:35;31.98;;;15.32;;
56321;SDS011;42227;6.376;-10.782;2023-02-28T09:21:05;25.20;;;12.68;;
56321;SDS011;42227;6.376;-10.782;2023-02-28T09:23:34;25.20;;;13.82;;
56321;SDS011;42227;6.376;-10.782;2023-02-28T09:26:06;33.55;;;14.63;;
56321;SDS011;42227;6.376;-10.782;2023-02-28T09:28:35;35.78;;;13.00;;
56321;SDS011;42227;6.376;-10.782;2023-02-28T09:31:03;46.85;;;12.85;;
56321;SDS011;42227;6.376;-10.782;2023-02-28T09:33:31;31.08;;;15.73;;
56321;SDS011;42227;6.376;-10.782;2023-02-28T09:36:00;29.30;;;15.52;;
56321;SDS011;42227;6.376;-10.782;2023-02-28T09:38:30;27.60;;;13.73;;
56321;SDS011;42227;6.376;-10.782;2023-02-28T09:41:00;39.20;;;13.75;;
56321;SDS011;42227;6.376;-10.782;2023-02-28T09:43:34;50.00;;;15.30;;
56321;SDS011;42227;6.376;-10.782;2023-02-28T09:46:28;32.17;;;12.00;;
56321;SDS011;42227;6.376;-10.782;2023-02-28T09:48:58;32.75;;;14.15;;
56321;SDS011;42227;6.376;-10.782;2023-02-28T09:51:44;42.65;;;12.70;;
56321;SDS011;42227;6.376;-10.782;2023-02-28T09:54:15;33.22;;;13.88;;
56321;SDS011;42227;6.376;-10.782;2023-02-28T09:56:50;31.23;;;12.55;;
56321;SDS011;42227;6.376;-10.782;2023-02-28T10:00:00;26.90;;;10.30;;
56321;SDS011;42227;6.376;-10.782;2023-02-28T10:05:36;27.85;;;8.80;;
56321;SDS011;42227;6.376;-10.782;2023-02-28T10:08:56;23.75;;;8.95;;
56321;SDS011;42227;6.376;-10.782;2023-02-28T10:11:07;25.38;;;10.77;;
56321;SDS011;42227;6.376;-10.782;2023-02-28T10:19:17;23.20;;;8.32;;
56321;SDS011;42227;6.376;-10.782;2023-02-28T10:21:58;21.48;;;9.68;;
56321;SDS011;42227;6.376;-10.782;2023-02-28T10:24:33;16.33;;;7.30;;
56321;SDS011;42227;6.376;-10.782;2023-02-28T10:27:12;25.00;;;8.40;;
56321;SDS011;42227;6.376;-10.782;2023-02-28T10:29:49;31.00;;;12.00;;
56321;SDS011;42227;6.376;-10.782;2023-02-28T10:32:24;24.48;;;9.32;;
56321;SDS011;42227;6.376;-10.782;2023-02-28T10:37:50;22.10;;;9.25;;
56321;SDS011;42227;6.376;-10.782;2023-02-28T10:43:02;24.10;;;9.52;;
56321;SDS011;42227;6.376;-10.782;2023-02-28T10:48:37;20.63;;;9.15;;
56321;SDS011;42227;6.376;-10.782;2023-02-28T10:51:08;21.45;;;8.95;;
56321;SDS011;42227;6.376;-10.782;2023-02-28T10:53:45;25.83;;;12.98;;
56321;SDS011;42227;6.376;-10.782;2023-02-28T10:56:27;23.10;;;9.25;;
56321;SDS011;42227;6.376;-10.782;2023-02-28T10:59:01;22.35;;;9.27;;
56321;SDS011;42227;6.376;-10.782;2023-02-28T11:01:37;28.15;;;8.85;;
56321;SDS011;42227;6.376;-10.782;2023-02-28T11:07:00;21.48;;;8.35;;
56321;SDS011;42227;6.376;-10.782;2023-02-28T11:12:06;20.85;;;8.32;;
56321;SDS011;42227;6.376;-10.782;2023-02-28T11:14:47;15.07;;;7.63;;
56321;SDS011;42227;6.376;-10.782;2023-02-28T11:17:22;26.52;;;9.27;;
56321;SDS011;42227;6.376;-10.782;2023-02-28T11:19:54;26.02;;;11.15;;
56321;SDS011;42227;6.376;-10.782;2023-02-28T11:22:27;24.13;;;9.70;;
56321;SDS011;42227;6.376;-10.782;2023-02-28T11:25:02;25.90;;;8.95;;
56321;SDS011;42227;6.376;-10.782;2023-02-28T11:27:45;27.15;;;10.52;;
56321;SDS011;42227;6.376;-10.782;2023-02-28T11:30:29;20.10;;;7.57;;
56321;SDS011;42227;6.376;-10.782;2023-02-28T11:32:58;29.65;;;8.73;;
56321;SDS011;42227;6.376;-10.782;2023-02-28T11:35:32;26.48;;;9.40;;
56321;SDS011;42227;6.376;-10.782;2023-02-28T11:38:05;20.40;;;8.43;;
56321;SDS011;42227;6.376;-10.782;2023-02-28T11:40:43;15.93;;;9.50;;
56321;SDS011;42227;6.376;-10.782;2023-02-28T11:49:25;20.70;;;8.45;;
56321;SDS011;42227;6.376;-10.782;2023-02-28T12:02:56;21.00;;;8.88;;
56321;SDS011;42227;6.376;-10.782;2023-02-28T12:08:54;19.33;;;9.00;;
56321;SDS011;42227;6.376;-10.782;2023-02-28T12:14:13;27.08;;;9.70;;
56321;SDS011;42227;6.376;-10.782;2023-02-28T12:22:28;23.25;;;9.00;;
56321;SDS011;42227;6.376;-10.782;2023-02-28T12:27:37;22.70;;;9.90;;
56321;SDS011;42227;6.376;-10.782;2023-02-28T12:30:13;29.90;;;10.98;;
56321;SDS011;42227;6.376;-10.782;2023-02-28T12:33:06;39.78;;;14.00;;
56321;SDS011;42227;6.376;-10.782;2023-02-28T12:35:48;26.23;;;9.75;;
56321;SDS011;42227;6.376;-10.782;2023-02-28T12:41:54;23.92;;;10.35;;
56321;SDS011;42227;6.376;-10.782;2023-02-28T12:47:04;22.50;;;9.15;;
56321;SDS011;42227;6.376;-10.782;2023-02-28T12:50:00;33.83;;;10.77;;
56321;SDS011;42227;6.376;-10.782;2023-02-28T12:52:46;27.40;;;9.30;;
56321;SDS011;42227;6.376;-10.782;2023-02-28T12:58:33;33.50;;;10.07;;
56321;SDS011;42227;6.376;-10.782;2023-02-28T13:04:07;20.90;;;7.93;;
56321;SDS011;42227;6.376;-10.782;2023-02-28T13:06:56;24.15;;;10.10;;
56321;SDS011;42227;6.376;-10.782;2023-02-28T13:09:28;23.02;;;7.32;;
56321;SDS011;42227;6.376;-10.782;2023-02-28T13:11:57;32.05;;;9.38;;
56321;SDS011;42227;6.376;-10.782;2023-02-28T13:16:56;11.90;;;7.55;;
56321;SDS011;42227;6.376;-10.782;2023-02-28T13:19:26;23.08;;;8.55;;
56321;SDS011;42227;6.376;-10.782;2023-02-28T13:21:57;34.47;;;11.55;;
56321;SDS011;42227;6.376;-10.782;2023-02-28T13:24:40;28.77;;;9.00;;
56321;SDS011;42227;6.376;-10.782;2023-02-28T13:29:43;31.60;;;9.75;;
56321;SDS011;42227;6.376;-10.782;2023-02-28T13:35:11;30.48;;;9.25;;
56321;SDS011;42227;6.376;-10.782;2023-02-28T13:37:36;23.08;;;10.02;;
56321;SDS011;42227;6.376;-10.782;2023-02-28T13:56:24;34.17;;;14.70;;
56321;SDS011;42227;6.376;-10.782;2023-02-28T13:59:12;31.50;;;13.32;;
56321;SDS011;42227;6.376;-10.782;2023-02-28T14:05:05;36.97;;;11.05;;
56321;SDS011;42227;6.376;-10.782;2023-02-28T14:08:03;25.55;;;9.57;;
56321;SDS011;42227;6.376;-10.782;2023-02-28T14:10:42;23.50;;;10.45;;
56321;SDS011;42227;6.376;-10.782;2023-02-28T14:16:06;25.45;;;11.25;;
56321;SDS011;42227;6.376;-10.782;2023-02-28T14:18:36;23.08;;;9.18;;
56321;SDS011;42227;6.376;-10.782;2023-02-28T14:21:21;34.35;;;8.18;;
56321;SDS011;42227;6.376;-10.782;2023-02-28T14:27:27;22.95;;;8.93;;
56321;SDS011;42227;6.376;-10.782;2023-02-28T14:36:10;28.80;;;9.77;;
56321;SDS011;42227;6.376;-10.782;2023-02-28T14:38:47;21.65;;;7.65;;
56321;SDS011;42227;6.376;-10.782;2023-02-28T14:41:35;26.75;;;12.88;;
56321;SDS011;42227;6.376;-10.782;2023-02-28T14:46:59;32.90;;;13.27;;
56321;SDS011;42227;6.376;-10.782;2023-02-28T14:49:32;19.63;;;9.98;;
56321;SDS011;42227;6.376;-10.782;2023-02-28T14:54:44;31.88;;;16.70;;
56321;SDS011;42227;6.376;-10.782;2023-02-28T14:57:23;40.47;;;20.63;;
56321;SDS011;42227;6.376;-10.782;2023-02-28T15:00:20;19.75;;;10.77;;
56321;SDS011;42227;6.376;-10.782;2023-02-28T15:02:51;35.08;;;11.68;;
56321;SDS011;42227;6.376;-10.782;2023-02-28T15:08:12;47.50;;;20.08;;
56321;SDS011;42227;6.376;-10.782;2023-02-28T15:13:19;34.25;;;20.40;;
56321;SDS011;42227;6.376;-10.782;2023-02-28T15:15:53;46.42;;;22.55;;
56321;SDS011;42227;6.376;-10.782;2023-02-28T15:21:16;27.02;;;7.00;;
56321;SDS011;42227;6.376;-10.782;2023-02-28T15:23:56;24.98;;;11.10;;
56321;SDS011;42227;6.376;-10.782;2023-02-28T15:26:38;25.02;;;9.85;;
56321;SDS011;42227;6.376;-10.782;2023-02-28T15:29:17;13.90;;;8.00;;
56321;SDS011;42227;6.376;-10.782;2023-02-28T15:31:49;31.27;;;11.02;;
56321;SDS011;42227;6.376;-10.782;2023-02-28T15:43:15;43.25;;;12.70;;
56321;SDS011;42227;6.376;-10.782;2023-02-28T15:48:17;21.90;;;7.90;;
56321;SDS011;42227;6.376;-10.782;2023-02-28T15:50:53;24.10;;;12.98;;
56321;SDS011;42227;6.376;-10.782;2023-02-28T15:53:30;38.35;;;16.23;;
56321;SDS011;42227;6.376;-10.782;2023-02-28T15:59:03;22.52;;;7.95;;
56321;SDS011;42227;6.376;-10.782;2023-02-28T16:01:36;20.47;;;9.73;;
56321;SDS011;42227;6.376;-10.782;2023-02-28T16:04:18;20.65;;;10.43;;
56321;SDS011;42227;6.376;-10.782;2023-02-28T16:09:25;25.13;;;13.57;;
56321;SDS011;42227;6.376;-10.782;2023-02-28T16:11:55;31.50;;;15.82;;
56321;SDS011;42227;6.376;-10.782;2023-02-28T16:14:27;33.45;;;11.50;;
56321;SDS011;42227;6.376;-10.782;2023-02-28T16:17:02;22.92;;;9.88;;
56321;SDS011;42227;6.376;-10.782;2023-02-28T16:19:32;30.95;;;10.57;;
56321;SDS011;42227;6.376;-10.782;2023-02-28T16:22:01;23.00;;;8.65;;
56321;SDS011;42227;6.376;-10.782;2023-02-28T16:24:29;37.28;;;12.90;;
56321;SDS011;42227;6.376;-10.782;2023-02-28T16:26:57;27.10;;;11.38;;
56321;SDS011;42227;6.376;-10.782;2023-02-28T16:29:28;37.20;;;14.48;;
56321;SDS011;42227;6.376;-10.782;2023-02-28T16:31:59;28.50;;;8.93;;
56321;SDS011;42227;6.376;-10.782;2023-02-28T16:34:28;20.10;;;8.73;;
56321;SDS011;42227;6.376;-10.782;2023-02-28T16:36:57;30.13;;;9.43;;
56321;SDS011;42227;6.376;-10.782;2023-02-28T16:39:26;18.77;;;8.00;;
56321;SDS011;42227;6.376;-10.782;2023-02-28T16:41:54;34.45;;;11.23;;
56321;SDS011;42227;6.376;-10.782;2023-02-28T16:44:32;36.53;;;9.27;;
56321;SDS011;42227;6.376;-10.782;2023-02-28T16:47:03;30.65;;;8.48;;
56321;SDS011;42227;6.376;-10.782;2023-02-28T16:49:32;24.88;;;8.02;;
56321;SDS011;42227;6.376;-10.782;2023-02-28T16:52:00;18.70;;;7.47;;
56321;SDS011;42227;6.376;-10.782;2023-02-28T16:54:29;27.92;;;8.80;;
56321;SDS011;42227;6.376;-10.782;2023-02-28T16:56:57;15.50;;;8.00;;
56321;SDS011;42227;6.376;-10.782;2023-02-28T16:59:26;25.67;;;8.75;;
56321;SDS011;42227;6.376;-10.782;2023-02-28T17:01:55;32.85;;;10.55;;
56321;SDS011;42227;6.376;-10.782;2023-02-28T17:04:27;21.95;;;9.07;;
56321;SDS011;42227;6.376;-10.782;2023-02-28T17:06:58;25.20;;;9.70;;
56321;SDS011;42227;6.376;-10.782;2023-02-28T17:09:26;24.53;;;9.13;;
56321;SDS011;42227;6.376;-10.782;2023-02-28T17:12:07;37.55;;;10.23;;
56321;SDS011;42227;6.376;-10.782;2023-02-28T17:14:36;38.47;;;9.07;;
56321;SDS011;42227;6.376;-10.782;2023-02-28T17:17:05;28.30;;;8.73;;
56321;SDS011;42227;6.376;-10.782;2023-02-28T17:19:34;16.10;;;8.00;;
56321;SDS011;42227;6.376;-10.782;2023-02-28T17:22:02;19.25;;;9.93;;
56321;SDS011;42227;6.376;-10.782;2023-02-28T17:24:31;22.25;;;8.20;;
56321;SDS011;42227;6.376;-10.782;2023-02-28T17:26:59;23.90;;;11.00;;
56321;SDS011;42227;6.376;-10.782;2023-02-28T17:29:27;26.35;;;10.70;;
56321;SDS011;42227;6.376;-10.782;2023-02-28T17:31:56;18.73;;;8.30;;
56321;SDS011;42227;6.376;-10.782;2023-02-28T17:34:28;30.70;;;9.38;;